createdAt,value
2022-11-01T00:01:29.583Z,100.00
2022-11-01T00:03:56.530Z,100.00
2022-11-01T00:06:23.517Z,100.00
2022-11-01T00:08:50.330Z,100.00
2022-11-01T00:11:18.567Z,100.00
2022-11-01T00:13:46.755Z,100.00
2022-11-01T00:16:14.141Z,100.00
2022-11-01T00:18:40.992Z,100.00
2022-11-01T00:21:07.918Z,100.00
2022-11-01T00:23:34.586Z,100.00
2022-11-01T00:26:01.819Z,100.00
2022-11-01T00:28:29.274Z,100.00
2022-11-01T00:30:57.132Z,100.00
2022-11-01T00:33:24.621Z,100.00
2022-11-01T00:35:51.883Z,100.00
2022-11-01T00:38:19.197Z,100.00
2022-11-01T00:40:46.048Z,100.00
2022-11-01T00:43:13.054Z,100.00
2022-11-01T00:45:39.656Z,100.00
2022-11-01T00:48:06.607Z,100.00
2022-11-01T00:50:33.146Z,100.00
2022-11-01T00:52:59.651Z,100.00
2022-11-01T00:55:26.318Z,100.00
2022-11-01T00:57:52.922Z,100.00
2022-11-01T01:00:19.635Z,100.00
2022-11-01T01:02:46.214Z,100.00
2022-11-01T01:05:13.021Z,100.00
2022-11-01T01:07:39.620Z,100.00
2022-11-01T01:10:07.568Z,100.00
2022-11-01T01:12:34.174Z,100.00
2022-11-01T01:15:00.870Z,100.00
2022-11-01T01:17:29.964Z,100.00
2022-11-01T01:19:59.455Z,100.00
2022-11-01T01:22:28.362Z,100.00
2022-11-01T01:24:57.629Z,100.00
2022-11-01T01:27:24.310Z,100.00
2022-11-01T01:29:51.817Z,100.00
2022-11-01T01:32:21.308Z,100.00
2022-11-01T01:34:50.943Z,100.00
2022-11-01T01:37:18.032Z,100.00
2022-11-01T01:39:44.560Z,100.00
2022-11-01T01:42:26.679Z,100.00
2022-11-01T01:44:56.002Z,100.00
2022-11-01T01:47:35.210Z,100.00
2022-11-01T01:50:11.002Z,100.00
2022-11-01T01:52:48.846Z,100.00
2022-11-01T01:55:18.902Z,100.00
2022-11-01T01:57:46.435Z,100.00
2022-11-01T02:00:13.540Z,100.00
2022-11-01T02:02:41.803Z,100.00
2022-11-01T02:05:44.101Z,100.00
2022-11-01T02:08:12.556Z,100.00
2022-11-01T02:10:40.011Z,100.00
2022-11-01T02:13:14.699Z,100.00
2022-11-01T02:16:07.450Z,100.00
2022-11-01T02:18:45.105Z,100.00
2022-11-01T02:21:48.424Z,100.00
2022-11-01T02:24:44.125Z,100.00
2022-11-01T02:27:29.241Z,100.00
2022-11-01T02:30:07.872Z,100.00
2022-11-01T02:32:46.092Z,100.00
2022-11-01T02:35:24.934Z,100.00
2022-11-01T02:38:07.787Z,100.00
2022-11-01T02:40:46.776Z,100.00
2022-11-01T02:43:18.706Z,100.00
2022-11-01T02:45:50.297Z,100.00
2022-11-01T02:48:21.829Z,100.00
2022-11-01T02:50:57.288Z,100.00
2022-11-01T02:53:23.875Z,100.00
2022-11-01T02:55:53.901Z,100.00
2022-11-01T02:58:27.483Z,100.00
2022-11-01T03:00:57.763Z,100.00
2022-11-01T03:03:35.732Z,100.00
2022-11-01T03:06:12.223Z,100.00
2022-11-01T03:08:43.308Z,100.00
2022-11-01T03:11:16.757Z,100.00
2022-11-01T03:13:52.889Z,100.00
2022-11-01T03:16:39.614Z,100.00
2022-11-01T03:19:24.410Z,100.00
2022-11-01T03:22:14.193Z,100.00
2022-11-01T03:25:28.268Z,100.00
2022-11-01T03:27:56.399Z,100.00
2022-11-01T03:30:23.402Z,100.00
2022-11-01T03:32:55.800Z,100.00
2022-11-01T03:35:26.891Z,100.00
2022-11-01T03:37:57.460Z,100.00
2022-11-01T03:40:26.277Z,100.00
2022-11-01T03:42:57.799Z,100.00
2022-11-01T03:45:27.140Z,100.00
2022-11-01T03:47:53.744Z,100.00
2022-11-01T03:50:22.775Z,100.00
2022-11-01T03:52:49.918Z,100.00
2022-11-01T03:55:18.272Z,100.00
2022-11-01T03:57:48.595Z,100.00
2022-11-01T04:00:21.688Z,100.00
2022-11-01T04:02:50.004Z,100.00
2022-11-01T04:05:17.344Z,100.00
2022-11-01T04:07:44.401Z,100.00
2022-11-01T04:10:11.619Z,100.00
2022-11-01T04:12:38.348Z,100.00
2022-11-01T04:15:24.544Z,100.00
2022-11-01T04:21:11.066Z,100.00
2022-11-01T04:23:38.196Z,100.00
2022-11-01T04:26:06.351Z,100.00
2022-11-01T04:28:33.036Z,100.00
2022-11-01T04:30:59.617Z,100.00
2022-11-01T04:33:26.161Z,100.00
2022-11-01T04:35:52.672Z,100.00
2022-11-01T04:38:19.193Z,100.00
2022-11-01T04:40:45.834Z,100.00
2022-11-01T04:43:13.310Z,100.00
2022-11-01T04:45:40.381Z,100.00
2022-11-01T04:48:18.512Z,100.00
2022-11-01T04:50:46.005Z,100.00
2022-11-01T04:53:12.677Z,100.00
2022-11-01T04:55:39.728Z,100.00
2022-11-01T04:58:06.811Z,100.00
2022-11-01T05:00:34.336Z,100.00
2022-11-01T05:03:06.642Z,100.00
2022-11-01T05:05:34.853Z,100.00
2022-11-01T05:08:09.417Z,100.00
2022-11-01T05:10:38.418Z,100.00
2022-11-01T05:13:06.034Z,100.00
2022-11-01T05:15:33.696Z,100.00
2022-11-01T05:18:01.995Z,100.00
2022-11-01T05:20:30.519Z,100.00
2022-11-01T05:23:01.854Z,100.00
2022-11-01T05:25:31.472Z,100.00
2022-11-01T05:28:02.569Z,100.00
2022-11-01T05:30:29.369Z,100.00
2022-11-01T05:33:00.454Z,100.00
2022-11-01T05:35:28.086Z,100.00
2022-11-01T05:37:55.212Z,100.00
2022-11-01T05:40:22.064Z,100.00
2022-11-01T05:42:48.742Z,100.00
2022-11-01T05:45:15.466Z,100.00
2022-11-01T05:47:42.075Z,100.00
2022-11-01T05:50:10.415Z,100.00
2022-11-01T05:52:36.930Z,100.00
2022-11-01T05:55:04.608Z,100.00
2022-11-01T05:57:33.580Z,100.00
2022-11-01T06:00:00.780Z,100.00
2022-11-01T06:02:27.412Z,100.00
2022-11-01T06:04:53.970Z,100.00
2022-11-01T06:07:20.469Z,100.00
2022-11-01T06:09:47.025Z,100.00
2022-11-01T06:12:13.574Z,100.00
2022-11-01T06:14:40.292Z,100.00
2022-11-01T06:17:06.806Z,100.00
2022-11-01T06:19:33.345Z,100.00
2022-11-01T06:21:59.839Z,100.00
2022-11-01T06:24:26.499Z,100.00
2022-11-01T06:26:53.026Z,100.00
2022-11-01T06:29:19.507Z,100.00
2022-11-01T06:31:46.079Z,100.00
2022-11-01T06:34:12.664Z,100.00
2022-11-01T06:36:39.204Z,100.00
2022-11-01T06:39:05.704Z,100.00
2022-11-01T06:41:32.263Z,100.00
2022-11-01T06:43:58.763Z,100.00
2022-11-01T06:46:25.253Z,100.00
2022-11-01T06:48:51.795Z,100.00
2022-11-01T06:51:18.338Z,100.00
2022-11-01T06:53:44.883Z,100.00
2022-11-01T06:56:11.440Z,100.00
2022-11-01T06:58:37.986Z,100.00
2022-11-01T07:01:04.620Z,100.00
2022-11-01T07:03:31.289Z,100.00
2022-11-01T07:06:00.113Z,100.00
2022-11-01T07:08:26.849Z,100.00
2022-11-01T07:10:53.437Z,100.00
2022-11-01T07:13:19.962Z,100.00
2022-11-01T07:15:46.532Z,100.00
2022-11-01T07:18:13.117Z,100.00
2022-11-01T07:20:42.815Z,100.00
2022-11-01T07:23:18.212Z,100.00
2022-11-01T07:25:44.888Z,100.00
2022-11-01T07:28:11.701Z,100.00
2022-11-01T07:30:39.290Z,100.00
2022-11-01T07:33:06.242Z,100.00
2022-11-01T07:35:34.264Z,100.00
2022-11-01T07:38:03.811Z,100.00
2022-11-01T07:40:33.156Z,100.00
2022-11-01T07:43:01.108Z,100.00
2022-11-01T07:45:30.383Z,100.00
2022-11-01T07:48:06.432Z,100.00
2022-11-01T07:50:34.232Z,100.00
2022-11-01T07:53:04.371Z,100.00
2022-11-01T07:55:31.527Z,99.90
2022-11-01T07:57:58.074Z,99.93
2022-11-01T08:00:25.200Z,99.78
2022-11-01T08:02:51.880Z,100.00
2022-11-01T08:05:18.503Z,99.95
2022-11-01T08:07:45.067Z,99.52
2022-11-01T08:10:12.722Z,99.49
2022-11-01T08:12:39.278Z,99.18
2022-11-01T08:15:06.863Z,99.07
2022-11-01T08:17:34.649Z,98.91
2022-11-01T08:20:01.224Z,98.76
2022-11-01T08:22:28.020Z,99.69
2022-11-01T08:24:54.617Z,98.96
2022-11-01T08:27:21.152Z,99.11
2022-11-01T08:29:47.683Z,99.11
2022-11-01T08:32:14.212Z,99.53
2022-11-01T08:34:40.762Z,99.19
2022-11-01T08:37:07.262Z,99.15
2022-11-01T08:39:33.825Z,98.64
2022-11-01T08:42:00.622Z,98.67
2022-11-01T08:44:27.187Z,98.53
2022-11-01T08:46:55.105Z,98.43
2022-11-01T08:49:21.711Z,98.53
2022-11-01T08:51:48.217Z,98.58
2022-11-01T08:54:14.783Z,98.57
2022-11-01T08:56:41.337Z,98.76
2022-11-01T08:59:08.074Z,99.33
2022-11-01T09:01:34.835Z,99.60
2022-11-01T09:04:01.778Z,99.87
2022-11-01T09:06:33.705Z,100.00
2022-11-01T09:09:03.347Z,99.12
2022-11-01T09:11:30.674Z,98.56
2022-11-01T09:14:01.219Z,98.35
2022-11-01T09:16:28.005Z,97.81
2022-11-01T09:18:54.595Z,98.31
2022-11-01T09:21:21.121Z,98.14
2022-11-01T09:23:47.716Z,97.34
2022-11-01T09:26:14.410Z,97.52
2022-11-01T09:28:41.168Z,97.46
2022-11-01T09:31:20.764Z,96.41
2022-11-01T09:33:48.015Z,96.57
2022-11-01T09:36:14.595Z,96.40
2022-11-01T09:38:41.110Z,96.12
2022-11-01T09:41:14.452Z,96.17
2022-11-01T09:43:44.220Z,96.61
2022-11-01T09:46:15.869Z,97.06
2022-11-01T09:48:44.214Z,96.99
2022-11-01T09:51:20.648Z,96.84
2022-11-01T09:53:49.966Z,96.70
2022-11-01T09:56:30.492Z,96.26
2022-11-01T09:59:34.603Z,95.92
2022-11-01T10:02:30.503Z,95.60
2022-11-01T10:05:15.995Z,95.98
2022-11-01T10:08:08.271Z,96.18
2022-11-01T10:10:44.134Z,95.80
2022-11-01T10:13:19.860Z,96.06
2022-11-01T10:15:55.158Z,96.13
2022-11-01T10:18:28.916Z,96.20
2022-11-01T10:20:57.624Z,96.89
2022-11-01T10:23:35.551Z,97.07
2022-11-01T10:26:04.109Z,96.54
2022-11-01T10:28:58.282Z,96.17
2022-11-01T10:31:27.444Z,95.84
2022-11-01T10:34:14.785Z,95.69
2022-11-01T10:36:45.060Z,95.71
2022-11-01T10:39:53.570Z,95.84
2022-11-01T10:42:12.736Z,95.67
2022-11-01T10:45:08.909Z,95.34
2022-11-01T10:47:35.618Z,95.26
2022-11-01T10:50:10.448Z,95.65
2022-11-01T10:52:51.998Z,94.94
2022-11-01T10:55:25.298Z,95.51
2022-11-01T10:57:59.687Z,95.92
2022-11-01T11:00:26.345Z,95.55
2022-11-01T11:02:58.756Z,95.96
2022-11-01T11:05:29.160Z,95.29
2022-11-01T11:07:57.481Z,95.53
2022-11-01T11:10:27.186Z,98.06
2022-11-01T11:13:01.635Z,96.50
2022-11-01T11:15:48.536Z,96.81
2022-11-01T11:18:28.047Z,97.43
2022-11-01T11:21:02.035Z,98.93
2022-11-01T11:23:31.029Z,99.63
2022-11-01T11:26:03.472Z,100.00
2022-11-01T11:28:33.530Z,99.12
2022-11-01T11:31:13.469Z,98.60
2022-11-01T11:33:53.561Z,98.60
2022-11-01T11:36:32.975Z,98.52
2022-11-01T11:39:00.468Z,97.84
2022-11-01T11:41:36.646Z,98.90
2022-11-01T11:44:03.584Z,99.25
2022-11-01T11:46:30.122Z,99.06
2022-11-01T11:49:04.492Z,98.74
2022-11-01T11:51:37.421Z,100.00
2022-11-01T11:54:09.075Z,99.87
2022-11-01T11:56:35.729Z,98.92
2022-11-01T11:59:10.465Z,99.67
2022-11-01T12:01:37.101Z,97.93
2022-11-01T12:04:12.680Z,96.58
2022-11-01T12:06:43.992Z,95.82
2022-11-01T12:09:44.480Z,96.84
2022-11-01T12:12:25.595Z,96.53
2022-11-01T12:14:53.174Z,96.83
2022-11-01T12:17:31.462Z,95.87
2022-11-01T12:20:10.291Z,96.25
2022-11-01T12:22:40.384Z,96.24
2022-11-01T12:25:14.127Z,96.18
2022-11-01T12:27:46.206Z,96.74
2022-11-01T12:30:20.562Z,96.72
2022-11-01T12:32:56.631Z,96.82
2022-11-01T12:35:43.002Z,96.41
2022-11-01T12:38:31.503Z,96.20
2022-11-01T12:41:02.853Z,96.60
2022-11-01T12:43:58.495Z,96.82
2022-11-01T12:46:24.911Z,96.73
2022-11-01T12:49:03.349Z,97.39
2022-11-01T12:51:45.964Z,98.02
2022-11-01T12:54:20.065Z,97.39
2022-11-01T12:56:46.713Z,97.45
2022-11-01T12:59:15.617Z,96.79
2022-11-01T13:01:51.085Z,96.45
2022-11-01T13:04:35.577Z,96.56
2022-11-01T13:07:14.007Z,96.87
2022-11-01T13:09:56.667Z,96.93
2022-11-01T13:12:29.507Z,96.04
2022-11-01T13:15:10.955Z,96.04
2022-11-01T13:17:50.610Z,95.43
2022-11-01T13:20:23.310Z,95.71
2022-11-01T13:23:15.247Z,96.48
2022-11-01T13:25:58.951Z,96.15
2022-11-01T13:28:56.649Z,95.97
2022-11-01T13:31:50.479Z,96.32
2022-11-01T13:34:28.395Z,96.77
2022-11-01T13:37:00.555Z,96.70
2022-11-01T13:39:46.610Z,96.73
2022-11-01T13:42:19.259Z,97.02
2022-11-01T13:45:07.153Z,97.26
2022-11-01T13:47:48.800Z,97.16
2022-11-01T13:50:15.306Z,97.22
2022-11-01T13:52:49.052Z,96.88
2022-11-01T13:56:07.604Z,96.72
2022-11-01T13:58:34.473Z,96.77
2022-11-01T14:01:28.850Z,96.81
2022-11-01T14:04:13.864Z,96.52
2022-11-01T14:06:42.389Z,96.68
2022-11-01T14:09:24.077Z,97.76
2022-11-01T14:11:54.969Z,98.62
2022-11-01T14:14:30.750Z,98.07
2022-11-01T14:17:20.696Z,98.20
2022-11-01T14:19:48.549Z,98.78
2022-11-01T14:22:24.357Z,98.55
2022-11-01T14:25:16.967Z,98.82
2022-11-01T14:27:51.690Z,99.19
2022-11-01T14:30:21.721Z,99.11
2022-11-01T14:32:57.180Z,98.79
2022-11-01T14:35:31.032Z,98.96
2022-11-01T14:38:05.587Z,98.76
2022-11-01T14:40:47.675Z,98.51
2022-11-01T14:43:31.008Z,99.38
2022-11-01T14:46:11.176Z,98.80
2022-11-01T14:49:05.310Z,99.28
2022-11-01T14:51:37.800Z,99.68
2022-11-01T14:54:27.250Z,100.00
2022-11-01T14:56:56.137Z,99.39
2022-11-01T14:59:33.629Z,99.51
2022-11-01T15:02:03.475Z,99.66
2022-11-01T15:04:33.049Z,100.00
2022-11-01T15:07:00.786Z,100.00
2022-11-01T15:09:31.819Z,100.00
2022-11-01T15:12:11.034Z,100.00
2022-11-01T15:14:41.996Z,100.00
2022-11-01T15:17:20.515Z,99.89
2022-11-01T15:19:48.291Z,99.51
2022-11-01T15:22:17.837Z,99.56
2022-11-01T15:24:47.710Z,99.03
2022-11-01T15:27:18.335Z,98.92
2022-11-01T15:29:45.176Z,99.42
2022-11-01T15:32:29.933Z,99.68
2022-11-01T15:34:59.201Z,99.38
2022-11-01T15:37:38.710Z,99.04
2022-11-01T15:40:28.911Z,99.41
2022-11-01T15:42:59.381Z,99.69
2022-11-01T15:45:34.167Z,100.00
2022-11-01T15:48:08.507Z,100.00
2022-11-01T15:50:38.093Z,100.00
2022-11-01T15:53:10.081Z,100.00
2022-11-01T15:55:44.208Z,100.00
2022-11-01T15:58:10.691Z,100.00
2022-11-01T16:00:43.975Z,100.00
2022-11-01T16:03:13.528Z,100.00
2022-11-01T16:05:59.915Z,100.00
2022-11-01T16:08:36.986Z,100.00
2022-11-01T16:11:03.876Z,100.00
2022-11-01T16:13:32.226Z,100.00
2022-11-01T16:16:01.786Z,100.00
2022-11-01T16:18:28.379Z,100.00
2022-11-01T16:21:04.959Z,100.00
2022-11-01T16:23:34.887Z,100.00
2022-11-01T16:26:07.304Z,100.00
2022-11-01T16:28:38.891Z,100.00
2022-11-01T16:31:28.860Z,100.00
2022-11-01T16:33:57.149Z,100.00
2022-11-01T16:36:31.867Z,100.00
2022-11-01T16:38:58.395Z,100.00
2022-11-01T16:41:31.730Z,100.00
2022-11-01T16:44:01.595Z,100.00
2022-11-01T16:46:30.364Z,100.00
2022-11-01T16:48:56.805Z,100.00
2022-11-01T16:51:27.081Z,100.00
2022-11-01T16:53:55.268Z,100.00
2022-11-01T16:56:36.612Z,100.00
2022-11-01T16:59:35.669Z,100.00
2022-11-01T17:02:15.314Z,100.00
2022-11-01T17:04:42.588Z,100.00
2022-11-01T17:07:12.012Z,100.00
2022-11-01T17:09:39.723Z,100.00
2022-11-01T17:12:07.631Z,100.00
2022-11-01T17:14:35.871Z,100.00
2022-11-01T17:17:08.525Z,100.00
2022-11-01T17:19:38.286Z,100.00
2022-11-01T17:22:08.419Z,100.00
2022-11-01T17:24:35.400Z,100.00
2022-11-01T17:27:05.433Z,100.00
2022-11-01T17:29:32.567Z,100.00
2022-11-01T17:31:59.907Z,100.00
2022-11-01T17:34:28.758Z,100.00
2022-11-01T17:36:57.402Z,100.00
2022-11-01T17:39:29.478Z,100.00
2022-11-01T17:41:56.687Z,100.00
2022-11-01T17:44:23.254Z,100.00
2022-11-01T17:46:49.872Z,100.00
2022-11-01T17:49:18.434Z,100.00
2022-11-01T17:51:45.038Z,100.00
2022-11-01T17:54:11.783Z,100.00
2022-11-01T17:56:38.398Z,100.00
2022-11-01T17:59:04.976Z,100.00
2022-11-01T18:01:32.561Z,100.00
2022-11-01T18:03:59.242Z,100.00
2022-11-01T18:06:26.554Z,100.00
2022-11-01T18:08:54.079Z,100.00
2022-11-01T18:11:38.159Z,100.00
2022-11-01T18:14:24.085Z,100.00
2022-11-01T18:17:19.376Z,100.00
2022-11-01T18:19:49.323Z,100.00
2022-11-01T18:22:20.581Z,100.00
2022-11-01T18:24:52.997Z,100.00
2022-11-01T18:27:37.711Z,100.00
2022-11-01T18:30:19.358Z,100.00
2022-11-01T18:33:02.615Z,100.00
2022-11-01T18:35:50.058Z,100.00
2022-11-01T18:38:35.291Z,100.00
2022-11-01T18:41:02.736Z,100.00
2022-11-01T18:43:37.930Z,100.00
2022-11-01T18:46:27.222Z,100.00
2022-11-01T18:49:00.548Z,100.00
2022-11-01T18:51:33.545Z,100.00
2022-11-01T18:54:09.185Z,100.00
2022-11-01T18:56:39.475Z,100.00
2022-11-01T18:59:38.731Z,100.00
2022-11-01T19:02:14.793Z,100.00
2022-11-01T19:04:43.108Z,100.00
2022-11-01T19:07:12.854Z,100.00
2022-11-01T19:09:43.987Z,100.00
2022-11-01T19:12:29.591Z,100.00
2022-11-01T19:14:59.723Z,100.00
2022-11-01T19:17:34.031Z,100.00
2022-11-01T19:20:00.670Z,100.00
2022-11-01T19:22:38.498Z,100.00
2022-11-01T19:25:15.746Z,100.00
2022-11-01T19:27:43.160Z,100.00
2022-11-01T19:30:21.155Z,100.00
2022-11-01T19:32:48.742Z,100.00
2022-11-01T19:35:21.722Z,100.00
2022-11-01T19:37:52.264Z,100.00
2022-11-01T19:40:32.980Z,100.00
2022-11-01T19:43:12.405Z,100.00
2022-11-01T19:45:45.682Z,100.00
2022-11-01T19:48:15.504Z,100.00
2022-11-01T19:50:46.208Z,100.00
2022-11-01T19:53:40.099Z,100.00
2022-11-01T19:56:10.152Z,100.00
2022-11-01T19:58:44.212Z,100.00
2022-11-01T20:01:16.641Z,100.00
2022-11-01T20:03:51.700Z,100.00
2022-11-01T20:06:18.044Z,100.00
2022-11-01T20:08:47.716Z,100.00
2022-11-01T20:11:14.232Z,100.00
2022-11-01T20:13:40.798Z,100.00
2022-11-01T20:16:07.831Z,100.00
2022-11-01T20:18:34.605Z,100.00
2022-11-01T20:21:03.162Z,100.00
2022-11-01T20:23:29.731Z,100.00
2022-11-01T20:25:56.312Z,100.00
2022-11-01T20:28:22.917Z,100.00
2022-11-01T20:30:49.474Z,100.00
2022-11-01T20:33:16.316Z,100.00
2022-11-01T20:35:43.217Z,100.00
2022-11-01T20:38:10.028Z,100.00
2022-11-01T20:40:36.579Z,100.00
2022-11-01T20:43:03.582Z,100.00
2022-11-01T20:45:30.268Z,100.00
2022-11-01T20:47:57.325Z,100.00
2022-11-01T20:50:23.911Z,100.00
2022-11-01T20:52:50.468Z,100.00
2022-11-01T20:55:17.321Z,100.00
2022-11-01T20:57:44.159Z,100.00
2022-11-01T21:00:18.207Z,100.00
2022-11-01T21:02:46.471Z,100.00
2022-11-01T21:05:30.985Z,100.00
2022-11-01T21:08:05.881Z,100.00
2022-11-01T21:10:33.919Z,100.00
2022-11-01T21:13:02.356Z,100.00
2022-11-01T21:15:35.033Z,100.00
2022-11-01T21:18:07.585Z,100.00
2022-11-01T21:20:48.489Z,100.00
2022-11-01T21:23:20.702Z,100.00
2022-11-01T21:26:15.179Z,100.00
2022-11-01T21:28:51.559Z,100.00
2022-11-01T21:31:28.147Z,100.00
2022-11-01T21:34:01.070Z,100.00
2022-11-01T21:36:48.327Z,100.00
2022-11-01T21:39:18.759Z,100.00
2022-11-01T21:41:57.095Z,100.00
2022-11-01T21:44:40.651Z,100.00
2022-11-01T21:47:20.879Z,100.00
2022-11-01T21:49:47.955Z,100.00
2022-11-01T21:52:14.912Z,100.00
2022-11-01T21:54:42.838Z,100.00
2022-11-01T21:57:10.941Z,100.00
2022-11-01T21:59:38.098Z,100.00
2022-11-01T22:02:06.633Z,100.00
2022-11-01T22:04:33.493Z,100.00
2022-11-01T22:07:02.268Z,100.00
2022-11-01T22:09:28.908Z,100.00
2022-11-01T22:11:56.262Z,100.00
2022-11-01T22:14:23.108Z,100.00
2022-11-01T22:16:49.726Z,100.00
2022-11-01T22:19:16.471Z,100.00
2022-11-01T22:24:15.323Z,100.00
2022-11-01T22:26:41.845Z,100.00
2022-11-01T22:29:08.314Z,100.00
2022-11-01T22:31:34.859Z,100.00
2022-11-01T22:34:01.857Z,100.00
2022-11-01T22:36:30.866Z,100.00
2022-11-01T22:39:06.697Z,100.00
2022-11-01T22:41:34.987Z,100.00
2022-11-01T22:44:24.618Z,100.00
2022-11-01T22:46:59.063Z,100.00
2022-11-01T22:49:40.530Z,100.00
2022-11-01T22:52:26.811Z,100.00
2022-11-01T22:55:08.328Z,100.00
2022-11-01T22:57:43.291Z,100.00
2022-11-01T23:00:22.275Z,100.00
2022-11-01T23:02:48.976Z,100.00
2022-11-01T23:05:24.601Z,100.00
2022-11-01T23:07:54.121Z,100.00
2022-11-01T23:10:31.828Z,100.00
2022-11-01T23:13:37.259Z,100.00
2022-11-01T23:16:31.617Z,100.00
2022-11-01T23:19:01.273Z,100.00
2022-11-01T23:21:28.207Z,100.00
2022-11-01T23:23:55.209Z,100.00
2022-11-01T23:26:23.803Z,100.00
2022-11-01T23:28:52.925Z,100.00
2022-11-01T23:31:20.692Z,100.00
2022-11-01T23:33:49.009Z,100.00
2022-11-01T23:36:31.406Z,100.00
2022-11-01T23:39:11.807Z,100.00
2022-11-01T23:41:44.513Z,100.00
2022-11-01T23:44:30.923Z,100.00
2022-11-01T23:47:07.543Z,100.00
2022-11-01T23:49:35.481Z,100.00
2022-11-01T23:52:09.162Z,100.00
2022-11-01T23:54:42.156Z,100.00
2022-11-01T23:57:17.645Z,100.00
2022-11-01T23:59:44.369Z,100.00
